Open Full Screen Window  High Contrast Mode
Wind Gusting 00 knots
03
April 25, 2017 8:01 PM EDT
Weather Information
Wind Direction
  170 °
Wind Speed
  03 kt (3 mph)
Wind Gust
  00 kt (0 mph)
Altimeter
29.70 in
Visibility
10 SM
Temperature
22° C
72° F
Dewpoint
12° C
54° F
Humidity
53%
1hr Rain Fall
00.00 in.
24hr Rain Fall
00.00 in.
Sky Condition
Clear
VFR

METAR KI19 260001Z AUTO 17003KT 10SM CLR 22/12 A2970 RMK AO2 T02210119

*Background is not an actual portrayal of the airport.